sensor_id;sensor_type;location;lat;lon;timestamp;P1;durP1;ratioP1;P2;durP2;ratioP2
11263;SDS011;5689;48.798;9.070;2022-12-18T00:00:04;6.03;;;5.73;;
11263;SDS011;5689;48.798;9.070;2022-12-18T00:02:38;6.33;;;6.03;;
11263;SDS011;5689;48.798;9.070;2022-12-18T00:05:07;6.30;;;6.00;;
11263;SDS011;5689;48.798;9.070;2022-12-18T00:07:35;6.93;;;6.63;;
11263;SDS011;5689;48.798;9.070;2022-12-18T00:10:04;7.50;;;7.10;;
11263;SDS011;5689;48.798;9.070;2022-12-18T00:12:33;5.93;;;5.63;;
11263;SDS011;5689;48.798;9.070;2022-12-18T00:15:01;6.63;;;6.33;;
11263;SDS011;5689;48.798;9.070;2022-12-18T00:17:30;6.93;;;6.63;;
11263;SDS011;5689;48.798;9.070;2022-12-18T00:19:58;6.07;;;5.77;;
11263;SDS011;5689;48.798;9.070;2022-12-18T00:22:26;6.17;;;5.87;;
11263;SDS011;5689;48.798;9.070;2022-12-18T00:24:54;6.50;;;6.20;;
11263;SDS011;5689;48.798;9.070;2022-12-18T00:27:22;6.77;;;6.47;;
11263;SDS011;5689;48.798;9.070;2022-12-18T00:29:50;6.67;;;5.97;;
11263;SDS011;5689;48.798;9.070;2022-12-18T00:32:18;7.03;;;6.73;;
11263;SDS011;5689;48.798;9.070;2022-12-18T00:34:47;7.10;;;6.70;;
11263;SDS011;5689;48.798;9.070;2022-12-18T00:37:15;7.10;;;6.70;;
11263;SDS011;5689;48.798;9.070;2022-12-18T00:39:49;6.13;;;5.83;;
11263;SDS011;5689;48.798;9.070;2022-12-18T00:42:18;6.40;;;6.00;;
11263;SDS011;5689;48.798;9.070;2022-12-18T00:45:04;6.43;;;6.13;;
11263;SDS011;5689;48.798;9.070;2022-12-18T00:47:36;6.20;;;5.90;;
11263;SDS011;5689;48.798;9.070;2022-12-18T00:50:06;6.47;;;6.17;;
11263;SDS011;5689;48.798;9.070;2022-12-18T00:52:35;6.03;;;5.73;;
11263;SDS011;5689;48.798;9.070;2022-12-18T00:55:10;5.83;;;5.63;;
11263;SDS011;5689;48.798;9.070;2022-12-18T00:57:39;6.40;;;6.10;;
11263;SDS011;5689;48.798;9.070;2022-12-18T01:00:08;6.63;;;6.33;;
11263;SDS011;5689;48.798;9.070;2022-12-18T01:02:39;7.13;;;6.73;;
11263;SDS011;5689;48.798;9.070;2022-12-18T01:05:09;7.17;;;6.77;;
11263;SDS011;5689;48.798;9.070;2022-12-18T01:07:38;6.83;;;6.53;;
11263;SDS011;5689;48.798;9.070;2022-12-18T01:10:07;6.40;;;6.10;;
11263;SDS011;5689;48.798;9.070;2022-12-18T01:12:37;6.80;;;6.50;;
11263;SDS011;5689;48.798;9.070;2022-12-18T01:15:13;6.97;;;6.67;;
11263;SDS011;5689;48.798;9.070;2022-12-18T01:17:42;6.83;;;6.53;;
11263;SDS011;5689;48.798;9.070;2022-12-18T01:20:12;6.57;;;6.27;;
11263;SDS011;5689;48.798;9.070;2022-12-18T01:22:41;7.47;;;7.10;;
11263;SDS011;5689;48.798;9.070;2022-12-18T01:25:09;6.60;;;6.20;;
11263;SDS011;5689;48.798;9.070;2022-12-18T01:27:37;6.90;;;6.50;;
11263;SDS011;5689;48.798;9.070;2022-12-18T01:30:05;6.63;;;6.33;;
11263;SDS011;5689;48.798;9.070;2022-12-18T01:32:34;7.17;;;6.87;;
11263;SDS011;5689;48.798;9.070;2022-12-18T01:35:02;7.13;;;6.73;;
11263;SDS011;5689;48.798;9.070;2022-12-18T01:37:33;5.90;;;5.60;;
11263;SDS011;5689;48.798;9.070;2022-12-18T01:40:01;5.70;;;5.40;;
11263;SDS011;5689;48.798;9.070;2022-12-18T01:42:29;6.57;;;6.27;;
11263;SDS011;5689;48.798;9.070;2022-12-18T01:45:02;6.13;;;5.83;;
11263;SDS011;5689;48.798;9.070;2022-12-18T01:47:34;6.13;;;5.83;;
11263;SDS011;5689;48.798;9.070;2022-12-18T01:50:06;6.63;;;6.33;;
11263;SDS011;5689;48.798;9.070;2022-12-18T01:52:38;8.80;;;8.40;;
11263;SDS011;5689;48.798;9.070;2022-12-18T01:55:10;5.70;;;5.40;;
11263;SDS011;5689;48.798;9.070;2022-12-18T01:57:39;6.10;;;5.80;;
11263;SDS011;5689;48.798;9.070;2022-12-18T02:00:09;6.13;;;5.83;;
11263;SDS011;5689;48.798;9.070;2022-12-18T02:02:39;6.33;;;6.03;;
11263;SDS011;5689;48.798;9.070;2022-12-18T02:05:09;6.03;;;5.73;;
11263;SDS011;5689;48.798;9.070;2022-12-18T02:07:42;6.50;;;6.20;;
11263;SDS011;5689;48.798;9.070;2022-12-18T02:10:27;6.67;;;6.37;;
11263;SDS011;5689;48.798;9.070;2022-12-18T02:13:00;6.30;;;6.00;;
11263;SDS011;5689;48.798;9.070;2022-12-18T02:15:38;5.60;;;5.40;;
11263;SDS011;5689;48.798;9.070;2022-12-18T02:18:10;6.50;;;6.20;;
11263;SDS011;5689;48.798;9.070;2022-12-18T02:20:43;6.60;;;6.20;;
11263;SDS011;5689;48.798;9.070;2022-12-18T02:23:19;6.53;;;6.23;;
11263;SDS011;5689;48.798;9.070;2022-12-18T02:26:04;6.50;;;6.20;;
11263;SDS011;5689;48.798;9.070;2022-12-18T02:28:38;6.17;;;5.87;;
11263;SDS011;5689;48.798;9.070;2022-12-18T02:31:10;6.53;;;6.23;;
11263;SDS011;5689;48.798;9.070;2022-12-18T02:33:42;6.13;;;5.83;;
11263;SDS011;5689;48.798;9.070;2022-12-18T02:36:12;5.67;;;5.37;;
11263;SDS011;5689;48.798;9.070;2022-12-18T02:38:43;5.53;;;5.33;;
11263;SDS011;5689;48.798;9.070;2022-12-18T02:41:16;6.07;;;5.67;;
11263;SDS011;5689;48.798;9.070;2022-12-18T02:43:48;6.47;;;6.17;;
11263;SDS011;5689;48.798;9.070;2022-12-18T02:46:26;5.87;;;5.67;;
11263;SDS011;5689;48.798;9.070;2022-12-18T02:49:04;5.60;;;5.30;;
11263;SDS011;5689;48.798;9.070;2022-12-18T02:51:41;5.73;;;5.53;;
11263;SDS011;5689;48.798;9.070;2022-12-18T02:54:20;5.67;;;5.37;;
11263;SDS011;5689;48.798;9.070;2022-12-18T02:57:03;6.13;;;5.83;;
11263;SDS011;5689;48.798;9.070;2022-12-18T02:59:38;5.77;;;5.53;;
11263;SDS011;5689;48.798;9.070;2022-12-18T03:02:16;6.13;;;5.83;;
11263;SDS011;5689;48.798;9.070;2022-12-18T03:04:49;5.10;;;4.80;;
11263;SDS011;5689;48.798;9.070;2022-12-18T03:07:25;5.40;;;5.20;;
11263;SDS011;5689;48.798;9.070;2022-12-18T03:10:00;5.60;;;5.40;;
11263;SDS011;5689;48.798;9.070;2022-12-18T03:12:31;5.70;;;5.50;;
11263;SDS011;5689;48.798;9.070;2022-12-18T03:15:03;6.43;;;6.13;;
11263;SDS011;5689;48.798;9.070;2022-12-18T03:17:37;6.03;;;5.73;;
11263;SDS011;5689;48.798;9.070;2022-12-18T03:20:10;5.30;;;5.10;;
11263;SDS011;5689;48.798;9.070;2022-12-18T03:22:42;6.03;;;5.77;;
11263;SDS011;5689;48.798;9.070;2022-12-18T03:25:13;6.93;;;6.53;;
11263;SDS011;5689;48.798;9.070;2022-12-18T03:27:46;6.53;;;6.23;;
11263;SDS011;5689;48.798;9.070;2022-12-18T03:30:18;5.67;;;5.37;;
11263;SDS011;5689;48.798;9.070;2022-12-18T03:32:47;5.83;;;5.53;;
11263;SDS011;5689;48.798;9.070;2022-12-18T03:35:22;6.17;;;5.87;;
11263;SDS011;5689;48.798;9.070;2022-12-18T03:37:56;6.10;;;5.80;;
11263;SDS011;5689;48.798;9.070;2022-12-18T03:40:26;5.83;;;5.53;;
11263;SDS011;5689;48.798;9.070;2022-12-18T03:43:00;6.47;;;6.17;;
11263;SDS011;5689;48.798;9.070;2022-12-18T03:45:34;5.40;;;5.20;;
11263;SDS011;5689;48.798;9.070;2022-12-18T03:48:05;6.93;;;6.63;;
11263;SDS011;5689;48.798;9.070;2022-12-18T03:50:42;5.80;;;5.53;;
11263;SDS011;5689;48.798;9.070;2022-12-18T03:53:19;6.20;;;5.90;;
11263;SDS011;5689;48.798;9.070;2022-12-18T03:55:57;6.13;;;5.83;;
11263;SDS011;5689;48.798;9.070;2022-12-18T03:58:34;6.37;;;6.07;;
11263;SDS011;5689;48.798;9.070;2022-12-18T04:01:26;5.80;;;5.60;;
11263;SDS011;5689;48.798;9.070;2022-12-18T04:03:58;5.50;;;5.30;;
11263;SDS011;5689;48.798;9.070;2022-12-18T04:06:32;6.77;;;6.47;;
11263;SDS011;5689;48.798;9.070;2022-12-18T04:09:00;5.77;;;5.57;;
11263;SDS011;5689;48.798;9.070;2022-12-18T04:11:31;5.57;;;5.27;;
11263;SDS011;5689;48.798;9.070;2022-12-18T04:14:03;6.10;;;5.80;;
11263;SDS011;5689;48.798;9.070;2022-12-18T04:16:32;6.27;;;5.97;;
11263;SDS011;5689;48.798;9.070;2022-12-18T04:19:02;6.13;;;5.83;;
11263;SDS011;5689;48.798;9.070;2022-12-18T04:21:37;6.17;;;5.87;;
11263;SDS011;5689;48.798;9.070;2022-12-18T04:24:05;5.77;;;5.47;;
11263;SDS011;5689;48.798;9.070;2022-12-18T04:26:37;6.03;;;5.77;;
11263;SDS011;5689;48.798;9.070;2022-12-18T04:29:13;5.97;;;5.67;;
11263;SDS011;5689;48.798;9.070;2022-12-18T04:31:41;4.77;;;4.57;;
11263;SDS011;5689;48.798;9.070;2022-12-18T04:34:10;4.80;;;4.60;;
11263;SDS011;5689;48.798;9.070;2022-12-18T04:36:44;6.03;;;5.73;;
11263;SDS011;5689;48.798;9.070;2022-12-18T04:39:13;5.97;;;5.67;;
11263;SDS011;5689;48.798;9.070;2022-12-18T04:41:42;4.93;;;4.73;;
11263;SDS011;5689;48.798;9.070;2022-12-18T04:44:13;6.20;;;5.90;;
11263;SDS011;5689;48.798;9.070;2022-12-18T04:46:41;5.77;;;5.47;;
11263;SDS011;5689;48.798;9.070;2022-12-18T04:49:10;5.67;;;5.37;;
11263;SDS011;5689;48.798;9.070;2022-12-18T04:51:39;6.17;;;5.87;;
11263;SDS011;5689;48.798;9.070;2022-12-18T04:54:07;5.60;;;5.40;;
11263;SDS011;5689;48.798;9.070;2022-12-18T04:56:35;5.07;;;4.87;;
11263;SDS011;5689;48.798;9.070;2022-12-18T04:59:03;4.90;;;4.70;;
11263;SDS011;5689;48.798;9.070;2022-12-18T05:01:32;5.00;;;4.80;;
11263;SDS011;5689;48.798;9.070;2022-12-18T05:04:00;4.30;;;4.10;;
11263;SDS011;5689;48.798;9.070;2022-12-18T05:06:28;5.20;;;5.00;;
11263;SDS011;5689;48.798;9.070;2022-12-18T05:08:56;4.93;;;4.73;;
11263;SDS011;5689;48.798;9.070;2022-12-18T05:11:24;5.60;;;5.40;;
11263;SDS011;5689;48.798;9.070;2022-12-18T05:13:52;5.23;;;5.03;;
11263;SDS011;5689;48.798;9.070;2022-12-18T05:16:23;5.53;;;5.33;;
11263;SDS011;5689;48.798;9.070;2022-12-18T05:18:53;5.43;;;5.13;;
11263;SDS011;5689;48.798;9.070;2022-12-18T05:21:20;5.63;;;5.43;;
11263;SDS011;5689;48.798;9.070;2022-12-18T05:23:48;5.13;;;4.93;;
11263;SDS011;5689;48.798;9.070;2022-12-18T05:26:17;5.17;;;4.93;;
11263;SDS011;5689;48.798;9.070;2022-12-18T05:28:45;5.53;;;5.33;;
11263;SDS011;5689;48.798;9.070;2022-12-18T05:31:14;5.40;;;5.20;;
11263;SDS011;5689;48.798;9.070;2022-12-18T05:33:42;5.30;;;5.00;;
11263;SDS011;5689;48.798;9.070;2022-12-18T05:36:11;5.37;;;5.17;;
11263;SDS011;5689;48.798;9.070;2022-12-18T05:38:39;6.10;;;5.80;;
11263;SDS011;5689;48.798;9.070;2022-12-18T05:41:08;5.43;;;5.13;;
11263;SDS011;5689;48.798;9.070;2022-12-18T05:43:36;5.27;;;5.07;;
11263;SDS011;5689;48.798;9.070;2022-12-18T05:46:07;5.20;;;5.00;;
11263;SDS011;5689;48.798;9.070;2022-12-18T05:48:38;6.10;;;5.80;;
11263;SDS011;5689;48.798;9.070;2022-12-18T05:51:07;4.97;;;4.77;;
11263;SDS011;5689;48.798;9.070;2022-12-18T05:53:38;5.30;;;5.10;;
11263;SDS011;5689;48.798;9.070;2022-12-18T05:56:07;5.17;;;4.97;;
11263;SDS011;5689;48.798;9.070;2022-12-18T05:58:37;5.33;;;5.13;;
11263;SDS011;5689;48.798;9.070;2022-12-18T06:01:06;5.13;;;4.93;;
11263;SDS011;5689;48.798;9.070;2022-12-18T06:03:35;4.97;;;4.77;;
11263;SDS011;5689;48.798;9.070;2022-12-18T06:06:04;4.80;;;4.60;;
11263;SDS011;5689;48.798;9.070;2022-12-18T06:08:45;5.10;;;4.90;;
11263;SDS011;5689;48.798;9.070;2022-12-18T06:11:16;5.13;;;4.93;;
11263;SDS011;5689;48.798;9.070;2022-12-18T06:13:45;5.53;;;5.33;;
11263;SDS011;5689;48.798;9.070;2022-12-18T06:16:13;5.77;;;5.47;;
11263;SDS011;5689;48.798;9.070;2022-12-18T06:18:41;5.30;;;5.10;;
11263;SDS011;5689;48.798;9.070;2022-12-18T06:21:10;4.80;;;4.60;;
11263;SDS011;5689;48.798;9.070;2022-12-18T06:23:38;5.83;;;5.53;;
11263;SDS011;5689;48.798;9.070;2022-12-18T06:26:08;5.07;;;4.87;;
11263;SDS011;5689;48.798;9.070;2022-12-18T06:28:37;5.60;;;5.40;;
11263;SDS011;5689;48.798;9.070;2022-12-18T06:31:05;4.80;;;4.60;;
11263;SDS011;5689;48.798;9.070;2022-12-18T06:33:34;5.43;;;5.23;;
11263;SDS011;5689;48.798;9.070;2022-12-18T06:36:03;5.93;;;5.63;;
11263;SDS011;5689;48.798;9.070;2022-12-18T06:38:33;5.37;;;5.17;;
11263;SDS011;5689;48.798;9.070;2022-12-18T06:41:06;6.23;;;5.93;;
11263;SDS011;5689;48.798;9.070;2022-12-18T06:43:36;5.80;;;5.60;;
11263;SDS011;5689;48.798;9.070;2022-12-18T06:46:04;5.70;;;5.50;;
11263;SDS011;5689;48.798;9.070;2022-12-18T06:48:33;5.60;;;5.40;;
11263;SDS011;5689;48.798;9.070;2022-12-18T06:51:01;5.27;;;5.07;;
11263;SDS011;5689;48.798;9.070;2022-12-18T06:53:29;6.13;;;5.83;;
11263;SDS011;5689;48.798;9.070;2022-12-18T06:55:59;5.50;;;5.30;;
11263;SDS011;5689;48.798;9.070;2022-12-18T06:58:31;5.27;;;5.07;;
11263;SDS011;5689;48.798;9.070;2022-12-18T07:00:59;5.53;;;5.33;;
11263;SDS011;5689;48.798;9.070;2022-12-18T07:03:28;5.37;;;5.17;;
11263;SDS011;5689;48.798;9.070;2022-12-18T07:05:56;5.43;;;5.23;;
11263;SDS011;5689;48.798;9.070;2022-12-18T07:08:24;5.77;;;5.57;;
11263;SDS011;5689;48.798;9.070;2022-12-18T07:10:52;5.97;;;5.73;;
11263;SDS011;5689;48.798;9.070;2022-12-18T07:13:21;5.30;;;5.10;;
11263;SDS011;5689;48.798;9.070;2022-12-18T07:15:50;5.63;;;5.43;;
11263;SDS011;5689;48.798;9.070;2022-12-18T07:18:18;5.20;;;5.00;;
11263;SDS011;5689;48.798;9.070;2022-12-18T07:20:46;5.67;;;5.47;;
11263;SDS011;5689;48.798;9.070;2022-12-18T07:23:14;5.80;;;5.57;;
11263;SDS011;5689;48.798;9.070;2022-12-18T07:25:42;5.53;;;5.33;;
11263;SDS011;5689;48.798;9.070;2022-12-18T07:28:10;5.53;;;5.33;;
11263;SDS011;5689;48.798;9.070;2022-12-18T07:30:42;5.13;;;4.93;;
11263;SDS011;5689;48.798;9.070;2022-12-18T07:33:11;5.33;;;5.13;;
11263;SDS011;5689;48.798;9.070;2022-12-18T07:35:39;5.00;;;4.80;;
11263;SDS011;5689;48.798;9.070;2022-12-18T07:38:08;5.00;;;4.80;;
11263;SDS011;5689;48.798;9.070;2022-12-18T07:40:36;6.10;;;5.80;;
11263;SDS011;5689;48.798;9.070;2022-12-18T07:43:04;5.03;;;4.80;;
11263;SDS011;5689;48.798;9.070;2022-12-18T07:45:32;6.23;;;5.93;;
11263;SDS011;5689;48.798;9.070;2022-12-18T07:48:00;5.77;;;5.53;;
11263;SDS011;5689;48.798;9.070;2022-12-18T07:50:29;5.27;;;5.07;;
11263;SDS011;5689;48.798;9.070;2022-12-18T07:52:57;5.50;;;5.30;;
11263;SDS011;5689;48.798;9.070;2022-12-18T07:55:29;5.13;;;4.93;;
11263;SDS011;5689;48.798;9.070;2022-12-18T07:58:07;5.43;;;5.20;;
11263;SDS011;5689;48.798;9.070;2022-12-18T08:00:35;5.40;;;5.20;;
11263;SDS011;5689;48.798;9.070;2022-12-18T08:03:03;5.33;;;5.13;;
11263;SDS011;5689;48.798;9.070;2022-12-18T08:05:33;4.43;;;4.23;;
11263;SDS011;5689;48.798;9.070;2022-12-18T08:08:01;5.03;;;4.83;;
11263;SDS011;5689;48.798;9.070;2022-12-18T08:10:28;4.97;;;4.77;;
11263;SDS011;5689;48.798;9.070;2022-12-18T08:12:56;5.10;;;4.80;;
11263;SDS011;5689;48.798;9.070;2022-12-18T08:15:28;4.90;;;4.70;;
11263;SDS011;5689;48.798;9.070;2022-12-18T08:17:56;4.63;;;4.43;;
11263;SDS011;5689;48.798;9.070;2022-12-18T08:20:24;5.13;;;4.93;;
11263;SDS011;5689;48.798;9.070;2022-12-18T08:22:53;4.47;;;4.27;;
11263;SDS011;5689;48.798;9.070;2022-12-18T08:25:24;4.63;;;4.43;;
11263;SDS011;5689;48.798;9.070;2022-12-18T08:27:52;5.23;;;5.03;;
11263;SDS011;5689;48.798;9.070;2022-12-18T08:30:21;4.63;;;4.43;;
11263;SDS011;5689;48.798;9.070;2022-12-18T08:32:50;4.17;;;3.97;;
11263;SDS011;5689;48.798;9.070;2022-12-18T08:35:19;4.80;;;4.57;;
11263;SDS011;5689;48.798;9.070;2022-12-18T08:37:47;5.10;;;4.90;;
11263;SDS011;5689;48.798;9.070;2022-12-18T08:40:17;4.87;;;4.57;;
11263;SDS011;5689;48.798;9.070;2022-12-18T08:42:45;4.60;;;4.40;;
11263;SDS011;5689;48.798;9.070;2022-12-18T08:45:33;4.50;;;4.30;;
11263;SDS011;5689;48.798;9.070;2022-12-18T08:48:01;4.60;;;4.40;;
11263;SDS011;5689;48.798;9.070;2022-12-18T08:50:29;4.27;;;4.07;;
11263;SDS011;5689;48.798;9.070;2022-12-18T08:52:57;4.10;;;3.90;;
11263;SDS011;5689;48.798;9.070;2022-12-18T08:55:27;3.63;;;3.53;;
11263;SDS011;5689;48.798;9.070;2022-12-18T08:57:55;4.40;;;4.20;;
11263;SDS011;5689;48.798;9.070;2022-12-18T09:00:23;4.63;;;4.43;;
11263;SDS011;5689;48.798;9.070;2022-12-18T09:02:51;4.37;;;4.17;;
11263;SDS011;5689;48.798;9.070;2022-12-18T09:05:20;4.00;;;3.80;;
11263;SDS011;5689;48.798;9.070;2022-12-18T09:07:48;4.30;;;4.10;;
11263;SDS011;5689;48.798;9.070;2022-12-18T09:10:16;3.63;;;3.43;;
11263;SDS011;5689;48.798;9.070;2022-12-18T09:12:45;3.73;;;3.53;;
11263;SDS011;5689;48.798;9.070;2022-12-18T09:15:13;3.20;;;3.10;;
11263;SDS011;5689;48.798;9.070;2022-12-18T09:17:41;3.23;;;3.13;;
11263;SDS011;5689;48.798;9.070;2022-12-18T09:20:10;3.60;;;3.50;;
11263;SDS011;5689;48.798;9.070;2022-12-18T09:22:38;3.33;;;3.23;;
11263;SDS011;5689;48.798;9.070;2022-12-18T09:25:06;3.60;;;3.40;;
11263;SDS011;5689;48.798;9.070;2022-12-18T09:27:34;3.20;;;3.10;;
11263;SDS011;5689;48.798;9.070;2022-12-18T09:30:04;2.80;;;2.70;;
11263;SDS011;5689;48.798;9.070;2022-12-18T09:32:34;3.00;;;2.90;;
11263;SDS011;5689;48.798;9.070;2022-12-18T09:35:02;3.20;;;3.10;;
11263;SDS011;5689;48.798;9.070;2022-12-18T09:37:31;2.87;;;2.77;;
11263;SDS011;5689;48.798;9.070;2022-12-18T09:39:59;2.70;;;2.60;;
11263;SDS011;5689;48.798;9.070;2022-12-18T09:42:27;3.30;;;3.10;;
11263;SDS011;5689;48.798;9.070;2022-12-18T09:44:55;3.13;;;3.03;;
11263;SDS011;5689;48.798;9.070;2022-12-18T09:47:25;2.83;;;2.73;;
11263;SDS011;5689;48.798;9.070;2022-12-18T09:49:58;2.80;;;2.70;;
11263;SDS011;5689;48.798;9.070;2022-12-18T09:52:32;2.73;;;2.63;;
11263;SDS011;5689;48.798;9.070;2022-12-18T09:55:05;2.20;;;2.10;;
11263;SDS011;5689;48.798;9.070;2022-12-18T09:57:42;2.80;;;2.70;;
11263;SDS011;5689;48.798;9.070;2022-12-18T10:00:17;3.07;;;2.97;;
11263;SDS011;5689;48.798;9.070;2022-12-18T10:02:49;2.83;;;2.73;;
11263;SDS011;5689;48.798;9.070;2022-12-18T10:05:20;2.37;;;2.27;;
11263;SDS011;5689;48.798;9.070;2022-12-18T10:08:05;2.50;;;2.40;;
11263;SDS011;5689;48.798;9.070;2022-12-18T10:10:40;2.60;;;2.50;;
11263;SDS011;5689;48.798;9.070;2022-12-18T10:13:15;2.27;;;2.17;;
11263;SDS011;5689;48.798;9.070;2022-12-18T10:15:53;2.43;;;2.33;;
11263;SDS011;5689;48.798;9.070;2022-12-18T10:18:32;2.63;;;2.53;;
11263;SDS011;5689;48.798;9.070;2022-12-18T10:21:09;2.27;;;2.17;;
11263;SDS011;5689;48.798;9.070;2022-12-18T10:23:42;2.53;;;2.43;;
11263;SDS011;5689;48.798;9.070;2022-12-18T10:26:15;2.23;;;2.13;;
11263;SDS011;5689;48.798;9.070;2022-12-18T10:28:44;2.13;;;2.03;;
11263;SDS011;5689;48.798;9.070;2022-12-18T10:31:14;1.93;;;1.83;;
11263;SDS011;5689;48.798;9.070;2022-12-18T10:33:46;1.53;;;1.53;;
11263;SDS011;5689;48.798;9.070;2022-12-18T10:36:14;1.73;;;1.63;;
11263;SDS011;5689;48.798;9.070;2022-12-18T10:38:43;1.93;;;1.83;;
11263;SDS011;5689;48.798;9.070;2022-12-18T10:41:23;1.50;;;1.50;;
11263;SDS011;5689;48.798;9.070;2022-12-18T10:46:38;1.17;;;1.17;;
11263;SDS011;5689;48.798;9.070;2022-12-18T10:49:18;0.80;;;0.80;;
11263;SDS011;5689;48.798;9.070;2022-12-18T10:51:48;0.63;;;0.63;;
11263;SDS011;5689;48.798;9.070;2022-12-18T10:54:18;0.50;;;0.50;;
11263;SDS011;5689;48.798;9.070;2022-12-18T10:56:49;0.40;;;0.40;;
11263;SDS011;5689;48.798;9.070;2022-12-18T10:59:18;0.70;;;0.70;;
11263;SDS011;5689;48.798;9.070;2022-12-18T11:01:47;0.77;;;0.77;;
11263;SDS011;5689;48.798;9.070;2022-12-18T11:04:19;0.87;;;0.87;;
11263;SDS011;5689;48.798;9.070;2022-12-18T11:06:53;0.90;;;0.90;;
11263;SDS011;5689;48.798;9.070;2022-12-18T11:09:24;0.60;;;0.60;;
11263;SDS011;5689;48.798;9.070;2022-12-18T11:11:54;0.40;;;0.40;;
11263;SDS011;5689;48.798;9.070;2022-12-18T11:14:26;0.60;;;0.60;;
11263;SDS011;5689;48.798;9.070;2022-12-18T11:16:56;0.60;;;0.60;;
11263;SDS011;5689;48.798;9.070;2022-12-18T11:19:48;0.60;;;0.60;;
11263;SDS011;5689;48.798;9.070;2022-12-18T11:22:21;0.67;;;0.67;;
11263;SDS011;5689;48.798;9.070;2022-12-18T11:24:53;0.63;;;0.63;;
11263;SDS011;5689;48.798;9.070;2022-12-18T11:27:47;0.50;;;0.50;;
11263;SDS011;5689;48.798;9.070;2022-12-18T11:30:20;0.30;;;0.30;;
11263;SDS011;5689;48.798;9.070;2022-12-18T11:32:50;0.20;;;0.20;;
11263;SDS011;5689;48.798;9.070;2022-12-18T11:35:23;0.20;;;0.20;;
11263;SDS011;5689;48.798;9.070;2022-12-18T11:38:01;0.20;;;0.20;;
11263;SDS011;5689;48.798;9.070;2022-12-18T11:40:34;0.20;;;0.20;;
11263;SDS011;5689;48.798;9.070;2022-12-18T11:43:07;0.30;;;0.30;;
11263;SDS011;5689;48.798;9.070;2022-12-18T11:45:40;0.70;;;0.70;;
11263;SDS011;5689;48.798;9.070;2022-12-18T11:48:14;0.60;;;0.60;;
11263;SDS011;5689;48.798;9.070;2022-12-18T11:50:48;0.43;;;0.43;;
11263;SDS011;5689;48.798;9.070;2022-12-18T11:53:18;0.50;;;0.50;;
11263;SDS011;5689;48.798;9.070;2022-12-18T11:55:52;0.73;;;0.73;;
11263;SDS011;5689;48.798;9.070;2022-12-18T11:58:37;0.50;;;0.50;;
11263;SDS011;5689;48.798;9.070;2022-12-18T12:01:14;0.50;;;0.50;;
11263;SDS011;5689;48.798;9.070;2022-12-18T12:06:46;0.70;;;0.70;;
11263;SDS011;5689;48.798;9.070;2022-12-18T12:09:29;0.80;;;0.80;;
11263;SDS011;5689;48.798;9.070;2022-12-18T12:12:06;0.97;;;0.97;;
11263;SDS011;5689;48.798;9.070;2022-12-18T12:14:49;1.30;;;1.30;;
11263;SDS011;5689;48.798;9.070;2022-12-18T12:17:29;1.20;;;1.20;;
11263;SDS011;5689;48.798;9.070;2022-12-18T12:20:03;1.40;;;1.40;;
11263;SDS011;5689;48.798;9.070;2022-12-18T12:22:41;1.00;;;1.00;;
11263;SDS011;5689;48.798;9.070;2022-12-18T12:25:21;1.40;;;1.40;;
11263;SDS011;5689;48.798;9.070;2022-12-18T12:28:01;1.47;;;1.47;;
11263;SDS011;5689;48.798;9.070;2022-12-18T12:30:42;1.90;;;1.80;;
11263;SDS011;5689;48.798;9.070;2022-12-18T12:33:26;1.77;;;1.70;;
11263;SDS011;5689;48.798;9.070;2022-12-18T12:36:03;1.70;;;1.60;;
11263;SDS011;5689;48.798;9.070;2022-12-18T12:38:42;1.90;;;1.80;;
11263;SDS011;5689;48.798;9.070;2022-12-18T12:41:17;1.93;;;1.83;;
11263;SDS011;5689;48.798;9.070;2022-12-18T12:44:06;1.73;;;1.70;;
11263;SDS011;5689;48.798;9.070;2022-12-18T12:46:40;2.00;;;1.90;;
11263;SDS011;5689;48.798;9.070;2022-12-18T12:49:11;2.37;;;2.27;;
11263;SDS011;5689;48.798;9.070;2022-12-18T12:51:43;1.60;;;1.60;;
11263;SDS011;5689;48.798;9.070;2022-12-18T12:54:15;1.80;;;1.80;;
11263;SDS011;5689;48.798;9.070;2022-12-18T12:56:48;2.10;;;2.00;;
11263;SDS011;5689;48.798;9.070;2022-12-18T12:59:22;1.90;;;1.80;;
11263;SDS011;5689;48.798;9.070;2022-12-18T13:01:59;1.87;;;1.80;;
11263;SDS011;5689;48.798;9.070;2022-12-18T13:04:34;2.10;;;2.00;;
11263;SDS011;5689;48.798;9.070;2022-12-18T13:07:06;1.73;;;1.73;;
11263;SDS011;5689;48.798;9.070;2022-12-18T13:12:54;2.10;;;2.00;;
11263;SDS011;5689;48.798;9.070;2022-12-18T13:15:23;1.70;;;1.70;;
11263;SDS011;5689;48.798;9.070;2022-12-18T13:20:49;2.00;;;1.90;;
11263;SDS011;5689;48.798;9.070;2022-12-18T13:23:27;1.80;;;1.73;;
11263;SDS011;5689;48.798;9.070;2022-12-18T13:25:59;2.17;;;2.07;;
11263;SDS011;5689;48.798;9.070;2022-12-18T13:28:52;2.17;;;2.07;;
11263;SDS011;5689;48.798;9.070;2022-12-18T13:34:26;1.93;;;1.83;;
11263;SDS011;5689;48.798;9.070;2022-12-18T13:36:57;2.17;;;2.07;;
11263;SDS011;5689;48.798;9.070;2022-12-18T13:40:06;2.00;;;1.90;;
11263;SDS011;5689;48.798;9.070;2022-12-18T13:43:23;2.07;;;1.97;;
11263;SDS011;5689;48.798;9.070;2022-12-18T13:45:59;2.10;;;2.00;;
11263;SDS011;5689;48.798;9.070;2022-12-18T13:48:34;2.10;;;2.00;;
11263;SDS011;5689;48.798;9.070;2022-12-18T13:51:05;2.50;;;2.30;;
11263;SDS011;5689;48.798;9.070;2022-12-18T13:53:36;2.03;;;1.93;;
11263;SDS011;5689;48.798;9.070;2022-12-18T13:56:09;2.63;;;2.53;;
11263;SDS011;5689;48.798;9.070;2022-12-18T13:58:44;2.43;;;2.33;;
11263;SDS011;5689;48.798;9.070;2022-12-18T14:01:21;2.23;;;2.13;;
11263;SDS011;5689;48.798;9.070;2022-12-18T14:04:08;2.53;;;2.43;;
11263;SDS011;5689;48.798;9.070;2022-12-18T14:06:36;2.07;;;1.97;;
11263;SDS011;5689;48.798;9.070;2022-12-18T14:09:04;2.53;;;2.43;;
11263;SDS011;5689;48.798;9.070;2022-12-18T14:11:32;2.57;;;2.47;;
11263;SDS011;5689;48.798;9.070;2022-12-18T14:14:02;2.10;;;2.00;;
11263;SDS011;5689;48.798;9.070;2022-12-18T14:16:33;2.40;;;2.30;;
11263;SDS011;5689;48.798;9.070;2022-12-18T14:19:01;2.50;;;2.40;;
11263;SDS011;5689;48.798;9.070;2022-12-18T14:21:30;2.60;;;2.50;;
11263;SDS011;5689;48.798;9.070;2022-12-18T14:24:04;2.77;;;2.67;;
11263;SDS011;5689;48.798;9.070;2022-12-18T14:26:39;2.67;;;2.57;;
11263;SDS011;5689;48.798;9.070;2022-12-18T14:29:22;2.40;;;2.30;;
11263;SDS011;5689;48.798;9.070;2022-12-18T14:32:04;2.40;;;2.30;;
11263;SDS011;5689;48.798;9.070;2022-12-18T14:34:37;2.50;;;2.40;;
11263;SDS011;5689;48.798;9.070;2022-12-18T14:37:05;2.87;;;2.77;;
11263;SDS011;5689;48.798;9.070;2022-12-18T14:39:36;2.63;;;2.53;;
11263;SDS011;5689;48.798;9.070;2022-12-18T14:42:04;3.03;;;2.93;;
11263;SDS011;5689;48.798;9.070;2022-12-18T14:44:34;3.13;;;3.00;;
11263;SDS011;5689;48.798;9.070;2022-12-18T14:47:12;3.13;;;3.03;;
11263;SDS011;5689;48.798;9.070;2022-12-18T14:49:41;3.33;;;3.23;;
11263;SDS011;5689;48.798;9.070;2022-12-18T14:52:16;3.37;;;3.27;;
11263;SDS011;5689;48.798;9.070;2022-12-18T14:54:51;3.17;;;3.07;;
11263;SDS011;5689;48.798;9.070;2022-12-18T14:57:20;3.13;;;3.03;;
11263;SDS011;5689;48.798;9.070;2022-12-18T14:59:52;3.20;;;3.07;;
11263;SDS011;5689;48.798;9.070;2022-12-18T15:02:21;3.07;;;2.93;;
11263;SDS011;5689;48.798;9.070;2022-12-18T15:04:59;2.93;;;2.73;;
11263;SDS011;5689;48.798;9.070;2022-12-18T15:07:34;3.00;;;2.90;;
11263;SDS011;5689;48.798;9.070;2022-12-18T15:10:10;3.23;;;3.10;;
11263;SDS011;5689;48.798;9.070;2022-12-18T15:12:41;3.07;;;2.90;;
11263;SDS011;5689;48.798;9.070;2022-12-18T15:18:14;2.93;;;2.83;;
11263;SDS011;5689;48.798;9.070;2022-12-18T15:20:46;3.00;;;2.90;;
11263;SDS011;5689;48.798;9.070;2022-12-18T15:23:17;3.50;;;3.40;;
11263;SDS011;5689;48.798;9.070;2022-12-18T15:25:48;3.77;;;3.57;;
11263;SDS011;5689;48.798;9.070;2022-12-18T15:28:23;3.73;;;3.57;;
11263;SDS011;5689;48.798;9.070;2022-12-18T15:31:02;3.60;;;3.43;;
11263;SDS011;5689;48.798;9.070;2022-12-18T15:33:33;2.97;;;2.87;;
11263;SDS011;5689;48.798;9.070;2022-12-18T15:36:03;2.80;;;2.70;;
11263;SDS011;5689;48.798;9.070;2022-12-18T15:38:32;3.57;;;3.37;;
11263;SDS011;5689;48.798;9.070;2022-12-18T15:41:00;2.80;;;2.70;;
11263;SDS011;5689;48.798;9.070;2022-12-18T15:43:29;2.80;;;2.70;;
11263;SDS011;5689;48.798;9.070;2022-12-18T15:46:05;3.00;;;2.90;;